Time;durP1;ratioP1;P1;durP2;ratioP2;P2;SDS_P1;SDS_P2;PMS_P1;PMS_P2;Temp;Humidity;BMP_temperature;BMP_pressure;BME280_temperature;BME280_humidity;BME280_pressure;Samples;Min_cycle;Max_cycle;Signal;HPM_P1;HPM_P2
2021/03/14 00:00:47;;;;;;;2.57;2.20;;;4.50;99.90;;;;;;5095547;28;20823;-65
2021/03/14 00:03:16;;;;;;;2.40;2.17;;;4.50;99.90;;;;;;5095403;28;20527;-64
2021/03/14 00:05:43;;;;;;;2.83;1.90;;;4.40;99.90;;;;;;5095415;28;20438;-66
2021/03/14 00:08:10;;;;;;;3.23;2.40;;;4.30;99.90;;;;;;5095478;28;20448;-64
2021/03/14 00:10:40;;;;;;;2.57;2.37;;;4.30;99.90;;;;;;5095618;28;20935;-65
2021/03/14 00:13:06;;;;;;;4.10;2.77;;;4.20;99.90;;;;;;5095279;28;20438;-65
2021/03/14 00:15:33;;;;;;;2.73;2.53;;;4.20;99.90;;;;;;5095241;28;20444;-65
2021/03/14 00:17:59;;;;;;;3.30;2.80;;;4.20;99.90;;;;;;5095479;28;20454;-65
2021/03/14 00:20:26;;;;;;;3.03;2.83;;;4.20;99.90;;;;;;5095309;28;20438;-65
2021/03/14 00:22:52;;;;;;;4.63;2.53;;;4.20;99.90;;;;;;5095126;28;20482;-65
2021/03/14 00:25:19;;;;;;;4.40;2.90;;;4.10;99.90;;;;;;5095194;28;20441;-66
2021/03/14 00:27:45;;;;;;;4.23;2.43;;;4.20;99.90;;;;;;5095124;28;21020;-65
2021/03/14 00:30:14;;;;;;;2.83;2.37;;;4.10;99.90;;;;;;5095144;28;20446;-65
2021/03/14 00:32:44;;;;;;;5.60;2.80;;;4.20;99.90;;;;;;5094996;28;20468;-64
2021/03/14 00:35:12;;;;;;;6.70;3.77;;;4.20;99.90;;;;;;5095006;28;20479;-64
2021/03/14 00:37:39;;;;;;;3.30;2.70;;;4.20;99.90;;;;;;5094896;28;20507;-65
2021/03/14 00:40:07;;;;;;;3.43;2.93;;;4.30;99.90;;;;;;5094932;28;20446;-64
2021/03/14 00:42:33;;;;;;;7.40;3.40;;;4.30;99.90;;;;;;5094755;28;20474;-63
2021/03/14 00:44:59;;;;;;;4.97;2.73;;;4.30;99.90;;;;;;5094747;28;20449;-65
2021/03/14 00:47:26;;;;;;;4.97;3.40;;;4.30;99.90;;;;;;5094713;28;20991;-65
2021/03/14 00:49:52;;;;;;;4.77;3.03;;;4.30;99.90;;;;;;5094733;28;20445;-66
2021/03/14 00:52:18;;;;;;;5.50;3.77;;;4.30;99.90;;;;;;5094722;28;20831;-65
2021/03/14 00:54:45;;;;;;;6.83;3.77;;;4.30;99.90;;;;;;5094488;28;20446;-66
2021/03/14 00:57:11;;;;;;;4.00;3.30;;;4.40;99.90;;;;;;5094581;28;20476;-65
2021/03/14 00:59:37;;;;;;;5.77;3.10;;;4.40;99.90;;;;;;5094466;28;20950;-66
2021/03/14 01:02:04;;;;;;;5.03;3.20;;;4.40;99.90;;;;;;5094546;28;20478;-65
2021/03/14 01:04:30;;;;;;;4.30;3.07;;;4.40;99.90;;;;;;5094337;28;20447;-66
2021/03/14 01:06:56;;;;;;;3.50;3.00;;;4.40;99.90;;;;;;5094251;28;20462;-66
2021/03/14 01:09:24;;;;;;;5.07;3.77;;;4.40;99.90;;;;;;5094516;28;20449;-65
2021/03/14 01:11:51;;;;;;;7.27;4.40;;;4.40;99.90;;;;;;5092965;28;20826;-64
2021/03/14 01:14:17;;;;;;;7.70;3.47;;;4.50;99.90;;;;;;5094011;28;20923;-65
2021/03/14 01:16:43;;;;;;;4.10;3.70;;;4.50;99.90;;;;;;5094138;28;20694;-65
2021/03/14 01:19:10;;;;;;;3.97;3.67;;;4.50;99.90;;;;;;5094256;28;20447;-66
2021/03/14 01:21:36;;;;;;;12.77;4.23;;;4.50;99.90;;;;;;5094076;28;20473;-65
2021/03/14 01:24:02;;;;;;;5.40;3.73;;;4.50;99.90;;;;;;5093827;28;20435;-64
2021/03/14 01:26:29;;;;;;;4.87;3.50;;;4.50;99.90;;;;;;5093948;28;20805;-65
2021/03/14 01:28:56;;;;;;;4.33;3.97;;;4.50;99.90;;;;;;5094138;28;20453;-64
2021/03/14 01:31:22;;;;;;;4.13;3.70;;;4.50;99.90;;;;;;5093912;28;20442;-65
2021/03/14 01:33:48;;;;;;;4.83;4.10;;;4.60;99.90;;;;;;5093742;28;20446;-65
2021/03/14 01:36:16;;;;;;;4.60;4.20;;;4.60;99.90;;;;;;5093514;28;20481;-65
2021/03/14 01:38:42;;;;;;;6.30;4.33;;;4.60;99.90;;;;;;5094056;28;20438;-65
2021/03/14 01:41:08;;;;;;;4.90;4.23;;;4.70;99.90;;;;;;5093648;28;20450;-65
2021/03/14 01:43:36;;;;;;;5.37;4.77;;;4.70;99.90;;;;;;5093527;28;20499;-67
2021/03/14 01:46:04;;;;;;;5.20;4.70;;;4.70;99.90;;;;;;5093550;28;21010;-66
2021/03/14 01:48:32;;;;;;;5.57;4.87;;;4.70;99.90;;;;;;5093587;28;20442;-66
2021/03/14 01:50:58;;;;;;;7.70;4.30;;;4.80;99.90;;;;;;5093392;28;20445;-65
2021/03/14 01:53:25;;;;;;;4.70;4.30;;;4.80;99.90;;;;;;5093317;28;20441;-65
2021/03/14 01:55:51;;;;;;;6.23;5.10;;;4.80;99.90;;;;;;5093270;28;20458;-64
2021/03/14 01:58:20;;;;;;;6.03;4.60;;;4.80;99.90;;;;;;5093422;28;20450;-64
2021/03/14 02:00:47;;;;;;;5.77;4.83;;;4.80;99.90;;;;;;5093447;28;20449;-65
2021/03/14 02:03:14;;;;;;;8.80;4.40;;;4.80;99.90;;;;;;5092995;28;20474;-66
2021/03/14 02:05:41;;;;;;;4.20;3.90;;;4.90;99.90;;;;;;5093261;28;20446;-65
2021/03/14 02:08:07;;;;;;;6.33;5.23;;;4.90;99.90;;;;;;5093086;28;20453;-65
2021/03/14 02:10:36;;;;;;;4.53;4.30;;;4.80;99.90;;;;;;5092988;28;20438;-65
2021/03/14 02:13:07;;;;;;;5.07;4.47;;;4.90;99.90;;;;;;5092848;28;20461;-64
2021/03/14 02:15:36;;;;;;;4.13;3.93;;;4.90;99.90;;;;;;5093012;28;20485;-65
2021/03/14 02:18:06;;;;;;;6.03;4.67;;;4.90;99.90;;;;;;5092922;28;20439;-64
2021/03/14 02:20:37;;;;;;;5.60;5.00;;;4.90;99.90;;;;;;5092895;28;20443;-64
2021/03/14 02:23:13;;;;;;;4.77;4.37;;;4.90;99.90;;;;;;5092459;28;20823;-65
2021/03/14 02:25:47;;;;;;;4.60;4.30;;;4.90;99.90;;;;;;5092862;28;20438;-65
2021/03/14 02:28:14;;;;;;;6.20;4.70;;;4.90;99.90;;;;;;5092953;28;20450;-65
2021/03/14 02:30:41;;;;;;;4.90;4.50;;;5.00;99.90;;;;;;5092796;28;20450;-65
2021/03/14 02:33:09;;;;;;;5.60;5.20;;;4.90;99.90;;;;;;5092376;28;20447;-65
2021/03/14 02:35:37;;;;;;;6.37;4.30;;;5.00;99.90;;;;;;5092541;28;20445;-65
2021/03/14 02:38:04;;;;;;;4.60;4.20;;;5.00;99.90;;;;;;5092698;28;20442;-64
2021/03/14 02:40:31;;;;;;;5.77;4.20;;;5.00;99.90;;;;;;5092572;28;20453;-65
2021/03/14 02:42:58;;;;;;;6.20;4.57;;;5.00;99.90;;;;;;5092353;28;20485;-65
2021/03/14 02:45:27;;;;;;;4.87;4.57;;;5.00;99.90;;;;;;5092427;28;20579;-65
2021/03/14 02:47:54;;;;;;;4.87;4.50;;;5.00;99.90;;;;;;5092402;28;20447;-65
2021/03/14 02:50:21;;;;;;;6.70;4.60;;;5.00;99.90;;;;;;5092466;28;20837;-65
2021/03/14 02:52:49;;;;;;;4.67;4.27;;;5.00;99.90;;;;;;5092329;28;20947;-65
2021/03/14 02:55:19;;;;;;;8.30;5.10;;;5.00;99.90;;;;;;5092311;28;20447;-65
2021/03/14 02:57:46;;;;;;;5.17;4.67;;;5.00;99.90;;;;;;5092240;28;20865;-65
2021/03/14 03:00:16;;;;;;;4.97;4.63;;;4.90;99.90;;;;;;5092107;28;20453;-64
2021/03/14 03:02:45;;;;;;;4.83;4.37;;;4.90;99.90;;;;;;5092091;28;20545;-65
2021/03/14 03:05:15;;;;;;;5.10;4.80;;;4.90;99.90;;;;;;5092331;28;20442;-65
2021/03/14 03:07:44;;;;;;;4.33;4.13;;;4.90;99.90;;;;;;5092343;28;20490;-65
2021/03/14 03:10:12;;;;;;;4.43;4.13;;;4.90;99.90;;;;;;5092294;28;20457;-65
2021/03/14 03:12:38;;;;;;;5.00;4.63;;;4.90;99.90;;;;;;5092238;28;20449;-65
2021/03/14 03:15:07;;;;;;;7.03;4.73;;;4.80;99.90;;;;;;5092104;28;20476;-65
2021/03/14 03:17:34;;;;;;;9.43;5.07;;;4.80;99.90;;;;;;5092001;28;20481;-65
2021/03/14 03:20:02;;;;;;;5.53;4.93;;;4.80;99.90;;;;;;5092250;28;20442;-64
2021/03/14 03:22:28;;;;;;;4.40;4.00;;;4.70;99.90;;;;;;5092045;28;20474;-64
2021/03/14 03:24:54;;;;;;;4.90;4.60;;;4.70;99.90;;;;;;5091977;28;20449;-64
2021/03/14 03:27:23;;;;;;;4.77;4.47;;;4.70;99.90;;;;;;5091976;28;20454;-64
2021/03/14 03:29:52;;;;;;;4.13;3.73;;;4.60;99.90;;;;;;5092095;28;20464;-64
2021/03/14 03:32:18;;;;;;;4.83;4.30;;;4.60;99.90;;;;;;5091978;28;20435;-64
2021/03/14 03:34:44;;;;;;;7.60;4.40;;;4.50;99.90;;;;;;5091096;28;20442;-64
2021/03/14 03:37:11;;;;;;;4.57;4.00;;;4.60;99.90;;;;;;5091692;28;20475;-64
2021/03/14 03:39:37;;;;;;;9.50;5.07;;;4.60;99.90;;;;;;5091967;28;20465;-64
2021/03/14 03:42:09;;;;;;;6.27;4.17;;;4.60;99.90;;;;;;5091860;28;20478;-65
2021/03/14 03:44:37;;;;;;;7.47;5.07;;;4.60;99.90;;;;;;5091766;28;20955;-63
2021/03/14 03:47:07;;;;;;;5.37;4.87;;;4.60;99.90;;;;;;5091753;28;20462;-64
2021/03/14 03:49:37;;;;;;;6.10;4.07;;;4.60;99.90;;;;;;5091720;28;20453;-65
2021/03/14 03:52:04;;;;;;;4.40;4.00;;;4.60;99.90;;;;;;5091801;28;20435;-65
2021/03/14 03:54:32;;;;;;;4.30;4.00;;;4.60;99.90;;;;;;5091598;28;21158;-64
2021/03/14 03:56:59;;;;;;;7.00;5.60;;;4.60;99.90;;;;;;5091587;28;20466;-65
2021/03/14 03:59:28;;;;;;;6.47;4.90;;;4.60;99.90;;;;;;5091759;28;20480;-65
2021/03/14 04:01:57;;;;;;;4.97;4.67;;;4.60;99.90;;;;;;5091611;28;20478;-64
2021/03/14 04:04:25;;;;;;;6.90;4.80;;;4.60;99.90;;;;;;5091427;28;20438;-65
2021/03/14 04:06:53;;;;;;;6.17;4.63;;;4.70;99.90;;;;;;5091527;28;20470;-65
2021/03/14 04:09:20;;;;;;;5.20;4.57;;;4.60;99.90;;;;;;5091559;28;20473;-64
2021/03/14 04:11:48;;;;;;;8.27;5.03;;;4.60;99.90;;;;;;5091718;28;20442;-64
2021/03/14 04:14:15;;;;;;;5.77;5.10;;;4.60;99.90;;;;;;5091294;28;20447;-64
2021/03/14 04:16:42;;;;;;;8.20;5.53;;;4.60;99.90;;;;;;5091498;28;20466;-64
2021/03/14 04:19:11;;;;;;;7.00;5.27;;;4.60;99.90;;;;;;5091489;28;20915;-65
2021/03/14 04:21:39;;;;;;;8.53;4.57;;;4.60;99.90;;;;;;5091483;28;20819;-65
2021/03/14 04:24:08;;;;;;;10.70;5.20;;;4.60;99.90;;;;;;5091314;28;21107;-65
2021/03/14 04:26:38;;;;;;;6.63;4.77;;;4.60;99.90;;;;;;5091461;28;20466;-65
2021/03/14 04:29:07;;;;;;;12.90;6.37;;;4.70;99.90;;;;;;5091707;28;20795;-65
2021/03/14 04:31:33;;;;;;;6.50;5.20;;;4.60;99.90;;;;;;5091501;28;20438;-65
2021/03/14 04:34:00;;;;;;;5.80;5.10;;;4.60;99.90;;;;;;5091080;28;20446;-64
2021/03/14 04:36:27;;;;;;;9.20;6.50;;;4.60;99.90;;;;;;5091785;28;20493;-63
2021/03/14 04:38:55;;;;;;;5.20;4.80;;;4.60;99.90;;;;;;5091372;28;20469;-64
2021/03/14 04:41:22;;;;;;;5.20;4.70;;;4.70;99.90;;;;;;5091386;28;20449;-64
2021/03/14 04:43:49;;;;;;;6.67;4.83;;;4.70;99.90;;;;;;5090999;28;20482;-64
2021/03/14 04:46:17;;;;;;;7.07;6.10;;;4.70;99.90;;;;;;5093947;28;20795;-65
2021/03/14 04:48:43;;;;;;;4.93;4.50;;;4.70;99.90;;;;;;5095137;28;20495;-65
2021/03/14 04:51:10;;;;;;;6.17;5.00;;;4.70;99.90;;;;;;5095013;28;20966;-64
2021/03/14 04:53:38;;;;;;;10.83;6.03;;;4.70;99.90;;;;;;5094769;28;20494;-64
2021/03/14 04:56:05;;;;;;;9.13;6.00;;;4.70;99.90;;;;;;5094809;28;20469;-65
2021/03/14 04:58:33;;;;;;;11.23;5.43;;;4.70;99.90;;;;;;5094866;28;20447;-64
2021/03/14 05:01:02;;;;;;;5.73;4.93;;;4.70;99.90;;;;;;5094765;28;20465;-64
2021/03/14 05:03:30;;;;;;;5.87;5.43;;;4.70;99.90;;;;;;5094461;28;20489;-65
2021/03/14 05:05:58;;;;;;;5.30;5.00;;;4.70;99.90;;;;;;5094778;28;20457;-64
2021/03/14 05:08:26;;;;;;;5.83;5.33;;;4.70;99.90;;;;;;5094577;28;20442;-64
2021/03/14 05:10:53;;;;;;;6.00;5.23;;;4.70;99.90;;;;;;5094671;28;20496;-64
2021/03/14 05:13:20;;;;;;;8.87;5.33;;;4.60;99.90;;;;;;5094226;28;20951;-63
2021/03/14 05:15:50;;;;;;;6.73;5.17;;;4.60;99.90;;;;;;5094624;28;20951;-66
2021/03/14 05:18:17;;;;;;;6.57;5.10;;;4.60;99.90;;;;;;5094474;28;20446;-64
2021/03/14 05:20:44;;;;;;;6.40;5.43;;;4.70;99.90;;;;;;5094594;28;20438;-65
2021/03/14 05:23:12;;;;;;;9.87;5.73;;;4.60;99.90;;;;;;5094062;28;20474;-65
2021/03/14 05:25:41;;;;;;;5.90;5.40;;;4.60;99.90;;;;;;5094283;28;20450;-64
2021/03/14 05:28:08;;;;;;;7.00;6.50;;;4.60;99.90;;;;;;5094257;28;20855;-63
2021/03/14 05:30:35;;;;;;;8.57;5.80;;;4.60;99.90;;;;;;5094318;28;20531;-63
2021/03/14 05:33:03;;;;;;;8.57;6.77;;;4.50;99.90;;;;;;5093955;28;20434;-63
2021/03/14 05:35:31;;;;;;;5.50;4.90;;;4.50;99.90;;;;;;5094022;28;20442;-63
2021/03/14 05:37:59;;;;;;;5.53;5.13;;;4.50;99.90;;;;;;5093818;28;20461;-63
2021/03/14 05:40:26;;;;;;;8.77;6.53;;;4.40;99.90;;;;;;5093973;28;20442;-63
2021/03/14 05:42:54;;;;;;;7.97;5.60;;;4.40;99.90;;;;;;5093707;28;20477;-63
2021/03/14 05:45:20;;;;;;;8.10;6.27;;;4.40;99.90;;;;;;5093730;28;20927;-65
2021/03/14 05:47:47;;;;;;;12.55;5.85;;;4.40;99.90;;;;;;5092695;28;20465;-66
2021/03/14 05:50:16;;;;;;;6.07;5.57;;;4.40;99.90;;;;;;5094150;28;20201;-65
2021/03/14 05:52:43;;;;;;;6.90;6.40;;;4.50;99.90;;;;;;5093645;28;20413;-65
2021/03/14 05:55:14;;;;;;;13.63;5.93;;;4.50;99.90;;;;;;5093913;28;20442;-65
2021/03/14 05:57:43;;;;;;;7.00;6.30;;;4.50;99.90;;;;;;5093181;28;20462;-66
2021/03/14 06:00:15;;;;;;;6.03;5.63;;;4.50;99.90;;;;;;5093559;28;20450;-65
2021/03/14 06:02:43;;;;;;;7.03;6.50;;;4.50;99.90;;;;;;5093329;28;20958;-68
2021/03/14 06:05:13;;;;;;;8.70;5.73;;;4.50;99.90;;;;;;5093601;28;20831;-65
2021/03/14 06:07:40;;;;;;;8.27;5.70;;;4.60;99.90;;;;;;5093482;28;20462;-65
2021/03/14 06:10:09;;;;;;;7.10;5.70;;;4.60;99.90;;;;;;5093584;28;20474;-65
2021/03/14 06:12:36;;;;;;;10.97;8.60;;;4.70;99.90;;;;;;5093356;28;20446;-65
2021/03/14 06:15:03;;;;;;;11.50;5.93;;;4.80;99.90;;;;;;5093194;28;20495;-64
2021/03/14 06:17:30;;;;;;;7.20;5.57;;;4.80;99.90;;;;;;5093301;28;20462;-65
2021/03/14 06:19:56;;;;;;;8.90;7.07;;;4.80;99.90;;;;;;5093216;28;20869;-65
2021/03/14 06:22:24;;;;;;;6.50;5.90;;;4.90;99.90;;;;;;5093284;28;20999;-65
2021/03/14 06:24:52;;;;;;;7.23;6.67;;;4.90;99.90;;;;;;5093002;28;20474;-65
2021/03/14 06:27:33;;;;;;;10.43;8.03;;;4.90;99.90;;;;;;5093068;28;20974;-65
2021/03/14 06:30:01;;;;;;;11.67;6.97;;;4.90;99.90;;;;;;5093296;28;20503;-65
2021/03/14 06:32:28;;;;;;;7.77;6.80;;;4.90;99.90;;;;;;5093150;28;20483;-64
2021/03/14 06:35:13;;;;;;;7.27;6.50;;;5.00;99.90;;;;;;5092818;28;20438;-64
2021/03/14 06:37:39;;;;;;;6.63;6.20;;;5.00;99.90;;;;;;5092764;28;21006;-65
2021/03/14 06:40:15;;;;;;;8.57;6.30;;;5.00;99.90;;;;;;5092803;28;20446;-64
2021/03/14 06:42:43;;;;;;;6.95;6.30;;;5.00;99.90;;;;;;5091483;28;20440;-64
2021/03/14 06:45:13;;;;;;;10.30;7.93;;;5.00;99.90;;;;;;5092782;28;20690;-63
2021/03/14 06:47:42;;;;;;;8.33;7.07;;;5.10;99.90;;;;;;5092765;28;20458;-65
2021/03/14 06:50:11;;;;;;;7.90;7.20;;;5.20;99.90;;;;;;5092745;28;20454;-65
2021/03/14 06:52:38;;;;;;;7.30;6.53;;;5.30;99.90;;;;;;5092501;28;20787;-65
2021/03/14 06:55:05;;;;;;;8.68;5.97;;;5.30;99.90;;;;;;5091479;28;20798;-64
2021/03/14 06:57:31;;;;;;;9.20;8.40;;;5.40;99.90;;;;;;5092464;28;20627;-65
2021/03/14 07:00:00;;;;;;;12.00;8.37;;;5.60;99.90;;;;;;5092670;28;20461;-65
2021/03/14 07:02:28;;;;;;;10.13;8.20;;;5.60;99.90;;;;;;5092782;28;20513;-63
2021/03/14 07:04:55;;;;;;;9.77;8.03;;;5.60;99.90;;;;;;5092266;28;20457;-64
2021/03/14 07:07:25;;;;;;;10.33;8.00;;;5.60;99.90;;;;;;5092382;28;20462;-65
2021/03/14 07:09:57;;;;;;;8.15;7.45;;;5.60;99.90;;;;;;5092030;28;20437;-64
2021/03/14 07:12:26;;;;;;;9.93;9.33;;;5.80;99.90;;;;;;5092378;28;20196;-65
2021/03/14 07:14:54;;;;;;;13.40;9.77;;;5.90;99.90;;;;;;5092068;28;20939;-64
2021/03/14 07:17:29;;;;;;;9.20;8.70;;;6.00;99.90;;;;;;5092268;28;20462;-63
2021/03/14 07:19:58;;;;;;;10.20;9.37;;;6.00;99.90;;;;;;5092154;28;20446;-63
2021/03/14 07:22:25;;;;;;;10.33;9.40;;;6.20;99.90;;;;;;5092059;28;20474;-66
2021/03/14 07:24:51;;;;;;;12.73;10.37;;;6.30;99.90;;;;;;5091836;28;20950;-65
2021/03/14 07:27:23;;;;;;;11.67;10.50;;;6.30;99.90;;;;;;5091964;28;21006;-65
2021/03/14 07:29:50;;;;;;;10.87;9.90;;;6.50;99.90;;;;;;5092040;28;20442;-64
2021/03/14 07:32:18;;;;;;;9.40;8.97;;;6.80;99.90;;;;;;5091994;28;20442;-64
2021/03/14 07:34:45;;;;;;;11.77;10.87;;;6.60;99.90;;;;;;5091759;28;20450;-64
2021/03/14 07:37:11;;;;;;;11.17;10.37;;;6.40;99.90;;;;;;5091722;28;20484;-66
2021/03/14 07:39:37;;;;;;;12.60;10.90;;;6.10;99.90;;;;;;5091923;28;20457;-63
2021/03/14 07:42:05;;;;;;;11.87;11.00;;;5.90;99.90;;;;;;5091877;28;20898;-67
2021/03/14 07:44:32;;;;;;;11.70;10.97;;;5.50;99.90;;;;;;5091636;28;20449;-64
2021/03/14 07:46:59;;;;;;;10.53;9.63;;;5.20;99.90;;;;;;5091807;28;20492;-64
2021/03/14 07:49:26;;;;;;;10.63;9.67;;;5.00;99.90;;;;;;5091872;28;20442;-66
2021/03/14 07:51:56;;;;;;;10.60;9.70;;;5.00;99.90;;;;;;5091638;28;20449;-63
2021/03/14 07:54:27;;;;;;;9.67;9.00;;;4.90;99.90;;;;;;5091392;28;20567;-67
2021/03/14 07:56:56;;;;;;;14.30;8.30;;;4.80;99.90;;;;;;5091604;28;20466;-66
2021/03/14 07:59:30;;;;;;;11.00;8.93;;;4.80;99.90;;;;;;5091668;28;20442;-66
2021/03/14 08:02:24;;;;;;;14.23;8.47;;;4.90;99.90;;;;;;5091128;28;20448;-63
2021/03/14 08:04:52;;;;;;;9.47;7.70;;;4.80;99.90;;;;;;5090893;28;20935;-67
2021/03/14 08:07:41;;;;;;;8.90;8.07;;;4.80;99.90;;;;;;5091021;28;20492;-64
2021/03/14 08:10:09;;;;;;;13.73;7.70;;;4.80;99.90;;;;;;5091202;28;20438;-65
2021/03/14 08:12:36;;;;;;;11.43;7.90;;;4.90;99.90;;;;;;5091089;28;20484;-64
2021/03/14 08:15:20;;;;;;;12.83;8.60;;;4.90;99.90;;;;;;5091509;28;20449;-63
2021/03/14 08:17:47;;;;;;;9.77;8.87;;;5.10;99.90;;;;;;5091485;28;20489;-64
2021/03/14 08:20:14;;;;;;;14.83;9.83;;;5.30;99.90;;;;;;5092717;28;20449;-66
2021/03/14 08:22:48;;;;;;;11.10;9.57;;;5.40;99.90;;;;;;5095342;28;20485;-66
2021/03/14 08:25:21;;;;;;;15.70;9.77;;;5.50;99.90;;;;;;5095604;28;20825;-66
2021/03/14 08:27:48;;;;;;;11.27;10.17;;;5.70;99.90;;;;;;5095404;28;20493;-67
2021/03/14 08:30:45;;;;;;;14.57;10.50;;;5.90;99.90;;;;;;5095559;28;20442;-65
2021/03/14 08:33:40;;;;;;;12.63;11.40;;;6.20;99.90;;;;;;5095257;28;20438;-66
2021/03/14 08:36:09;;;;;;;11.25;9.98;;;6.20;99.90;;;;;;5091478;28;20505;-65
2021/03/14 08:38:44;;;;;;;12.50;11.60;;;6.30;99.90;;;;;;5095584;28;20257;-63
2021/03/14 08:41:35;;;;;;;11.30;10.43;;;6.40;99.90;;;;;;5095254;28;20783;-63
2021/03/14 08:44:04;;;;;;;12.60;11.53;;;6.30;99.90;;;;;;5095121;28;20474;-66
2021/03/14 08:46:58;;;;;;;12.17;11.10;;;6.30;99.90;;;;;;5095002;28;20835;-66
2021/03/14 08:49:25;;;;;;;10.73;10.03;;;6.30;99.90;;;;;;5095298;28;20446;-65
2021/03/14 08:51:51;;;;;;;15.70;10.27;;;6.10;99.90;;;;;;5094000;28;20436;-65
2021/03/14 08:54:25;;;;;;;12.80;11.70;;;6.10;99.90;;;;;;5094550;28;20692;-65
2021/03/14 08:56:55;;;;;;;12.03;11.03;;;5.90;99.90;;;;;;5094922;28;20527;-65
2021/03/14 08:59:21;;;;;;;11.90;10.87;;;5.80;99.90;;;;;;5095043;28;20816;-66
2021/03/14 09:01:53;;;;;;;13.70;10.50;;;5.60;99.90;;;;;;5095007;28;20438;-65
2021/03/14 09:04:23;;;;;;;11.27;10.10;;;5.50;99.90;;;;;;5094777;28;20430;-64
2021/03/14 09:06:49;;;;;;;11.37;10.17;;;5.50;99.90;;;;;;5094814;28;20466;-65
2021/03/14 09:09:18;;;;;;;13.07;11.70;;;5.50;99.90;;;;;;5094754;28;20486;-64
2021/03/14 09:11:47;;;;;;;11.43;10.33;;;5.40;99.90;;;;;;5094834;28;20994;-66
2021/03/14 09:14:34;;;;;;;20.07;9.67;;;5.40;99.90;;;;;;5094455;28;20446;-64
2021/03/14 09:17:05;;;;;;;13.50;10.30;;;5.40;99.90;;;;;;5094702;28;20959;-64
2021/03/14 09:19:34;;;;;;;10.33;9.20;;;5.40;99.90;;;;;;5094733;28;20510;-64
2021/03/14 09:22:02;;;;;;;10.83;9.90;;;5.40;99.90;;;;;;5094581;28;20442;-67
2021/03/14 09:24:34;;;;;;;11.43;10.30;;;5.30;99.90;;;;;;5094248;28;20442;-64
2021/03/14 09:27:04;;;;;;;10.47;9.57;;;5.30;99.90;;;;;;5094246;28;20812;-65
2021/03/14 09:29:46;;;;;;;14.03;9.73;;;5.30;99.90;;;;;;5094486;28;20894;-64
2021/03/14 09:32:37;;;;;;;12.60;10.40;;;5.40;99.90;;;;;;5093165;28;20453;-67
2021/03/14 09:35:19;;;;;;;11.50;7.23;;;5.40;99.90;;;;;;5074444;28;20534;-65
2021/03/14 09:37:50;;;;;;;10.47;9.40;;;5.60;99.90;;;;;;5094150;28;20481;-65
2021/03/14 09:40:22;;;;;;;12.33;11.07;;;5.90;99.90;;;;;;5094244;28;20434;-65
2021/03/14 09:42:53;;;;;;;14.17;10.33;;;6.20;99.90;;;;;;5094143;28;20539;-66
2021/03/14 09:45:21;;;;;;;10.63;9.73;;;6.60;99.90;;;;;;5094142;28;20466;-65
2021/03/14 09:48:01;;;;;;;10.90;9.90;;;7.20;99.90;;;;;;5094197;28;20458;-65
2021/03/14 09:50:28;;;;;;;13.43;10.80;;;7.60;99.90;;;;;;5093927;28;20442;-65
2021/03/14 09:52:58;;;;;;;12.70;11.70;;;7.60;99.90;;;;;;5093685;28;20485;-66
2021/03/14 09:55:26;;;;;;;14.80;13.43;;;8.10;99.90;;;;;;5093821;28;20442;-66
2021/03/14 09:57:53;;;;;;;13.77;12.60;;;8.60;99.90;;;;;;5093739;28;20490;-66
2021/03/14 10:00:30;;;;;;;13.37;12.53;;;8.60;99.90;;;;;;5093815;28;20439;-66
2021/03/14 10:03:02;;;;;;;12.90;12.00;;;8.40;99.90;;;;;;5093542;28;20474;-66
2021/03/14 10:05:36;;;;;;;14.23;13.20;;;8.00;99.90;;;;;;5093573;28;20528;-65
2021/03/14 10:08:02;;;;;;;14.10;13.20;;;7.60;99.90;;;;;;5093562;28;20468;-66
2021/03/14 10:10:29;;;;;;;12.67;11.87;;;7.10;99.90;;;;;;5093764;28;20508;-66
2021/03/14 10:12:57;;;;;;;13.23;12.43;;;7.10;99.90;;;;;;5093337;28;20434;-66
2021/03/14 10:15:24;;;;;;;13.33;12.30;;;6.90;99.90;;;;;;5093482;28;20465;-67
2021/03/14 10:17:50;;;;;;;12.97;12.17;;;6.70;99.90;;;;;;5093354;28;20470;-66
2021/03/14 10:20:20;;;;;;;12.30;11.40;;;6.50;99.90;;;;;;5093283;28;20865;-65
2021/03/14 10:22:46;;;;;;;13.63;12.70;;;6.20;99.90;;;;;;5093191;28;20486;-65
2021/03/14 10:25:23;;;;;;;12.77;11.63;;;5.90;99.90;;;;;;5093131;28;20446;-64
2021/03/14 10:27:50;;;;;;;13.27;12.07;;;5.70;99.90;;;;;;5093184;28;20487;-66
2021/03/14 10:30:20;;;;;;;13.10;11.90;;;5.60;99.90;;;;;;5093160;28;20469;-65
2021/03/14 10:32:47;;;;;;;12.80;11.57;;;5.50;99.90;;;;;;5092886;28;20449;-66
2021/03/14 10:35:14;;;;;;;12.90;11.00;;;5.60;99.90;;;;;;5093005;28;20683;-66
2021/03/14 10:37:42;;;;;;;12.80;11.80;;;5.60;99.90;;;;;;5093153;28;20988;-65
2021/03/14 10:40:10;;;;;;;13.30;12.10;;;5.90;99.90;;;;;;5093062;28;20438;-66
2021/03/14 10:42:38;;;;;;;10.85;9.75;;;6.40;99.90;;;;;;5091860;28;20511;-65
2021/03/14 10:45:09;;;;;;;13.77;12.40;;;7.10;99.90;;;;;;5092734;28;20215;-65
2021/03/14 10:47:37;;;;;;;13.90;12.70;;;7.40;99.90;;;;;;5092734;28;20459;-66
2021/03/14 10:50:17;;;;;;;11.63;11.00;;;7.70;99.90;;;;;;5092974;28;20439;-66
2021/03/14 10:52:46;;;;;;;11.80;11.03;;;8.30;99.90;;;;;;5092651;28;20504;-66
2021/03/14 10:55:30;;;;;;;14.47;13.67;;;8.70;99.90;;;;;;5092624;28;20442;-65
2021/03/14 10:58:10;;;;;;;13.50;12.80;;;9.10;99.90;;;;;;5092688;28;20446;-65
2021/03/14 11:00:39;;;;;;;14.77;13.73;;;9.60;99.90;;;;;;5092745;28;20446;-65
2021/03/14 11:03:13;;;;;;;15.50;14.57;;;9.50;99.90;;;;;;5092556;28;20478;-66
2021/03/14 11:05:41;;;;;;;17.03;16.00;;;9.80;99.90;;;;;;5092648;28;20446;-65
2021/03/14 11:08:09;;;;;;;17.97;17.17;;;9.70;99.90;;;;;;5092398;28;20451;-66
2021/03/14 11:10:35;;;;;;;16.30;15.40;;;10.00;99.90;;;;;;5092596;28;20445;-66
2021/03/14 11:13:14;;;;;;;15.30;14.60;;;10.20;99.90;;;;;;5090932;28;20424;-65
2021/03/14 11:15:41;;;;;;;16.30;15.50;;;10.80;99.90;;;;;;5092421;28;20230;-66
2021/03/14 11:18:21;;;;;;;18.10;16.70;;;10.70;99.90;;;;;;5092375;28;20442;-66
2021/03/14 11:20:47;;;;;;;17.63;16.93;;;10.50;99.90;;;;;;5092349;28;20442;-66
2021/03/14 11:23:13;;;;;;;17.67;16.73;;;10.30;99.90;;;;;;5091873;28;20473;-66
2021/03/14 11:25:40;;;;;;;17.67;16.87;;;10.40;99.90;;;;;;5092169;28;20476;-66
2021/03/14 11:28:09;;;;;;;18.10;17.10;;;10.20;99.90;;;;;;5091976;28;20799;-66
2021/03/14 11:30:36;;;;;;;17.73;16.93;;;10.30;99.90;;;;;;5092146;28;20816;-66
2021/03/14 11:33:03;;;;;;;17.60;16.70;;;10.70;99.90;;;;;;5091790;28;20441;-66
2021/03/14 11:35:30;;;;;;;17.83;16.93;;;10.50;99.90;;;;;;5092152;28;20449;-67
2021/03/14 11:37:56;;;;;;;18.90;17.93;;;11.60;99.90;;;;;;5091995;28;20476;-66
2021/03/14 11:40:22;;;;;;;19.23;18.30;;;11.60;99.90;;;;;;5091971;28;20507;-68
2021/03/14 11:42:49;;;;;;;18.27;17.47;;;11.90;99.90;;;;;;5091702;28;20523;-67
2021/03/14 11:45:16;;;;;;;19.10;18.30;;;11.80;99.90;;;;;;5091786;28;20952;-68
2021/03/14 11:47:43;;;;;;;18.33;17.57;;;11.60;99.90;;;;;;5091998;28;20463;-68
2021/03/14 11:50:11;;;;;;;18.67;17.77;;;11.60;99.90;;;;;;5091841;28;20526;-69
2021/03/14 11:52:38;;;;;;;18.97;18.17;;;10.90;99.90;;;;;;5091828;28;20445;-67
2021/03/14 11:55:05;;;;;;;18.97;18.10;;;10.70;99.90;;;;;;5090955;28;20442;-66
2021/03/14 11:57:32;;;;;;;18.43;17.63;;;10.40;99.90;;;;;;5091296;28;20469;-66
2021/03/14 11:59:58;;;;;;;18.03;17.20;;;9.90;99.90;;;;;;5090896;28;20438;-66
2021/03/14 12:02:25;;;;;;;18.70;17.87;;;9.80;99.90;;;;;;5090143;28;20473;-66
2021/03/14 12:04:51;;;;;;;17.63;16.93;;;10.20;99.90;;;;;;5090273;28;20446;-65
2021/03/14 12:07:17;;;;;;;17.10;16.40;;;10.20;99.90;;;;;;5089869;28;20466;-66
2021/03/14 12:09:44;;;;;;;17.80;16.80;;;10.10;99.90;;;;;;5090742;28;20442;-65
2021/03/14 12:12:11;;;;;;;18.20;17.20;;;10.00;99.90;;;;;;5090602;28;20465;-66
2021/03/14 12:14:39;;;;;;;18.50;17.70;;;10.40;99.90;;;;;;5090613;28;20862;-66
2021/03/14 12:17:06;;;;;;;16.80;16.20;;;10.60;99.90;;;;;;5090635;28;20534;-66
2021/03/14 12:19:32;;;;;;;18.90;18.10;;;10.60;99.90;;;;;;5090607;28;20442;-66
2021/03/14 12:21:58;;;;;;;18.40;17.50;;;10.00;99.90;;;;;;5091298;28;20438;-66
2021/03/14 12:24:24;;;;;;;17.93;17.03;;;9.70;99.90;;;;;;5090980;28;20477;-66
2021/03/14 12:26:51;;;;;;;17.90;17.10;;;9.50;99.90;;;;;;5090769;28;20967;-66
2021/03/14 12:29:18;;;;;;;16.93;16.23;;;9.80;99.90;;;;;;5090973;28;20438;-66
2021/03/14 12:31:44;;;;;;;17.13;16.50;;;9.90;99.90;;;;;;5091184;28;20873;-66
2021/03/14 12:34:10;;;;;;;17.80;17.00;;;10.40;99.90;;;;;;5090879;28;20449;-66
2021/03/14 12:36:36;;;;;;;17.20;16.60;;;11.60;99.90;;;;;;5090844;28;20528;-66
2021/03/14 12:39:03;;;;;;;18.30;17.60;;;13.00;96.10;;;;;;5091225;28;20438;-66
2021/03/14 12:41:29;;;;;;;19.00;18.30;;;13.70;95.20;;;;;;5091049;28;20935;-66
2021/03/14 12:43:56;;;;;;;19.40;18.60;;;13.70;91.70;;;;;;5090728;28;20481;-66
2021/03/14 12:46:23;;;;;;;19.57;18.53;;;12.80;91.50;;;;;;5090845;28;20848;-66
2021/03/14 12:48:49;;;;;;;19.27;18.47;;;11.90;92.70;;;;;;5091008;28;20450;-65
2021/03/14 12:51:15;;;;;;;19.17;18.37;;;11.70;95.10;;;;;;5090776;28;20438;-66
2021/03/14 12:53:41;;;;;;;18.27;17.43;;;11.80;94.70;;;;;;5090732;28;20435;-66
2021/03/14 12:56:08;;;;;;;19.17;18.27;;;11.80;94.40;;;;;;5091053;28;20782;-66